Time;durP1;ratioP1;P1;durP2;ratioP2;P2;SDS_P1;SDS_P2;PMS_P1;PMS_P2;Temp;Humidity;BMP_temperature;BMP_pressure;BME280_temperature;BME280_humidity;BME280_pressure;Samples;Min_cycle;Max_cycle;Signal;HPM_P1;HPM_P2
2023/04/01 00:01:05;;;;;;;1.02;0.90;;;18.80;55.70;;;;;;4978696;28;20315;-65
2023/04/01 00:03:33;;;;;;;0.70;0.70;;;18.80;55.70;;;;;;4994100;28;20181;-64
2023/04/01 00:05:59;;;;;;;1.20;1.10;;;18.80;55.80;;;;;;5010210;28;20193;-65
2023/04/01 00:08:27;;;;;;;0.80;0.80;;;18.80;55.70;;;;;;4993756;28;20702;-65
2023/04/01 00:10:53;;;;;;;1.13;0.82;;;18.80;55.80;;;;;;4985227;28;20271;-65
2023/04/01 00:13:20;;;;;;;1.17;0.82;;;18.80;55.70;;;;;;5009937;28;20189;-64
2023/04/01 00:15:47;;;;;;;0.80;0.80;;;18.80;55.70;;;;;;4995022;28;20188;-64
2023/04/01 00:18:13;;;;;;;0.93;0.82;;;18.80;55.70;;;;;;4977372;28;20213;-64
2023/04/01 00:20:43;;;;;;;0.95;0.95;;;18.80;55.70;;;;;;4993147;28;20639;-64
2023/04/01 00:23:09;;;;;;;1.00;0.90;;;18.80;55.70;;;;;;4993732;28;20185;-64
2023/04/01 00:25:35;;;;;;;0.65;0.65;;;18.80;55.70;;;;;;4994430;28;20185;-65
2023/04/01 00:28:00;;;;;;;1.15;0.70;;;18.80;55.70;;;;;;4977197;28;20195;-64
2023/04/01 00:30:26;;;;;;;1.00;0.73;;;18.80;55.70;;;;;;5009420;28;20220;-65
2023/04/01 00:32:53;;;;;;;0.80;0.70;;;18.80;55.70;;;;;;4993210;28;20197;-66
2023/04/01 00:35:19;;;;;;;0.77;0.70;;;18.80;55.80;;;;;;4987028;28;20174;-65
2023/04/01 00:37:45;;;;;;;1.05;0.73;;;18.80;55.70;;;;;;5006703;28;20267;-64
2023/04/01 00:40:29;;;;;;;0.80;0.80;;;18.80;55.70;;;;;;4993024;28;20608;-64
2023/04/01 00:42:56;;;;;;;0.75;0.75;;;18.80;55.90;;;;;;4990304;28;20213;-65
2023/04/01 00:45:30;;;;;;;0.75;0.75;;;18.80;55.70;;;;;;5004270;28;20644;-65
2023/04/01 00:48:01;;;;;;;0.70;0.70;;;18.80;55.70;;;;;;4973735;28;20252;-65
2023/04/01 00:50:30;;;;;;;0.82;0.60;;;18.70;55.70;;;;;;4981953;28;20638;-65
2023/04/01 00:52:58;;;;;;;0.85;0.80;;;18.80;55.70;;;;;;4973619;28;20198;-65
2023/04/01 00:55:28;;;;;;;0.68;0.57;;;18.80;55.70;;;;;;5007890;23;20245;-66
2023/04/01 00:57:58;;;;;;;0.90;0.70;;;18.70;55.60;;;;;;4968310;28;20205;-68
2023/04/01 01:00:26;;;;;;;0.73;0.73;;;18.80;55.70;;;;;;5009597;28;20189;-68
2023/04/01 01:02:52;;;;;;;0.80;0.80;;;18.80;55.70;;;;;;4982574;28;20185;-68
2023/04/01 01:05:31;;;;;;;0.68;0.68;;;18.80;55.70;;;;;;4971587;28;20202;-68
2023/04/01 01:08:17;;;;;;;1.25;0.90;;;18.70;55.60;;;;;;4990073;28;20240;-68
2023/04/01 01:10:48;;;;;;;2.03;0.80;;;18.80;55.70;;;;;;4948463;29;20196;-68
2023/04/01 01:13:36;;;;;;;1.08;0.73;;;18.70;55.60;;;;;;4970909;28;20277;-68
2023/04/01 01:16:22;;;;;;;1.00;0.70;;;18.80;55.70;;;;;;4954814;28;20627;-68
2023/04/01 01:19:22;;;;;;;1.00;0.80;;;18.80;55.80;;;;;;4956139;28;20213;-69
2023/04/01 01:22:29;;;;;;;0.93;0.73;;;18.70;55.60;;;;;;4965281;28;20193;-68
2023/04/01 01:26:04;;;;;;;0.70;0.70;;;18.80;55.70;;;;;;4973420;28;20672;-68
2023/04/01 01:29:04;;;;;;;1.00;0.70;;;18.80;55.70;;;;;;4875590;29;20198;-67
2023/04/01 01:31:54;;;;;;;1.58;0.68;;;18.80;55.70;;;;;;4958310;28;20222;-68
2023/04/01 01:35:16;;;;;;;0.90;0.80;;;18.70;55.60;;;;;;4955738;28;20197;-68
2023/04/01 01:37:45;;;;;;;0.70;0.70;;;18.80;55.70;;;;;;4967333;28;20216;-67
2023/04/01 01:40:14;;;;;;;0.80;0.75;;;18.70;55.60;;;;;;4953841;29;20193;-68
2023/04/01 01:42:50;;;;;;;0.90;0.80;;;18.80;55.70;;;;;;4977837;28;20345;-68
2023/04/01 01:45:21;;;;;;;0.80;0.52;;;18.80;55.70;;;;;;4937944;29;20202;-68
2023/04/01 01:47:49;;;;;;;0.80;0.80;;;18.80;55.70;;;;;;4971267;28;20186;-65
2023/04/01 01:50:17;;;;;;;0.50;0.50;;;18.80;55.80;;;;;;4952734;28;20190;-66
2023/04/01 01:52:43;;;;;;;0.60;0.60;;;18.80;55.70;;;;;;4969495;28;20224;-66
2023/04/01 01:55:45;;;;;;;0.70;0.70;;;18.80;55.70;;;;;;4937733;29;20225;-66
2023/04/01 01:58:30;;;;;;;0.68;0.68;;;18.70;55.60;;;;;;4935290;28;20221;-66
2023/04/01 02:01:02;;;;;;;0.63;0.60;;;18.80;55.70;;;;;;4977107;28;20186;-66
2023/04/01 02:03:34;;;;;;;0.65;0.55;;;18.80;55.70;;;;;;4953244;28;20190;-66
2023/04/01 02:06:07;;;;;;;0.47;0.47;;;18.80;55.70;;;;;;4949091;28;20213;-66
2023/04/01 02:08:58;;;;;;;0.88;0.80;;;18.80;55.70;;;;;;4980706;28;20677;-66
2023/04/01 02:11:36;;;;;;;0.82;0.50;;;18.80;55.70;;;;;;4980751;28;20605;-68
2023/04/01 02:14:15;;;;;;;0.98;0.57;;;18.80;55.70;;;;;;4964992;28;20182;-66
2023/04/01 02:16:46;;;;;;;0.60;0.60;;;18.70;55.70;;;;;;4965588;28;20638;-68
2023/04/01 02:19:15;;;;;;;0.90;0.70;;;18.80;55.70;;;;;;4980795;28;20672;-68
2023/04/01 02:21:43;;;;;;;0.50;0.50;;;18.80;55.70;;;;;;4987573;28;20209;-68
2023/04/01 02:24:15;;;;;;;0.70;0.70;;;18.80;55.70;;;;;;4961227;28;20194;-69
2023/04/01 02:26:42;;;;;;;1.15;0.50;;;18.80;55.70;;;;;;4970310;28;20206;-67
2023/04/01 02:29:11;;;;;;;0.75;0.73;;;18.70;55.70;;;;;;4980960;28;20192;-68
2023/04/01 02:31:37;;;;;;;0.82;0.80;;;18.80;55.70;;;;;;4980118;28;20187;-66
2023/04/01 02:34:04;;;;;;;0.50;0.50;;;18.80;55.70;;;;;;4976405;28;20205;-65
2023/04/01 02:36:31;;;;;;;0.93;0.50;;;18.70;55.60;;;;;;4984004;28;20228;-66
2023/04/01 02:39:02;;;;;;;0.57;0.57;;;18.70;55.60;;;;;;4980163;28;20722;-65
2023/04/01 02:41:28;;;;;;;0.65;0.60;;;18.70;55.60;;;;;;4966027;28;20226;-66
2023/04/01 02:43:54;;;;;;;0.50;0.50;;;18.70;55.60;;;;;;4963308;28;20288;-66
2023/04/01 02:46:20;;;;;;;0.50;0.50;;;18.70;55.60;;;;;;4982009;28;20565;-65
2023/04/01 02:48:46;;;;;;;1.13;0.50;;;18.80;55.70;;;;;;4976488;28;20198;-66
2023/04/01 02:51:12;;;;;;;0.50;0.50;;;18.80;55.70;;;;;;4957931;28;20244;-66
2023/04/01 02:53:38;;;;;;;0.40;0.40;;;18.80;55.70;;;;;;4979280;28;20248;-66
2023/04/01 02:56:04;;;;;;;0.50;0.50;;;18.80;55.70;;;;;;4964534;28;20217;-67
2023/04/01 02:58:30;;;;;;;0.70;0.70;;;18.70;55.60;;;;;;4978071;28;20246;-66
2023/04/01 03:00:56;;;;;;;0.60;0.60;;;18.70;55.60;;;;;;4958313;28;20185;-66
2023/04/01 03:03:21;;;;;;;0.77;0.52;;;18.80;55.70;;;;;;4964163;28;20178;-66
2023/04/01 03:05:47;;;;;;;0.75;0.60;;;18.80;55.70;;;;;;4975072;28;20237;-66
2023/04/01 03:08:13;;;;;;;0.60;0.60;;;18.80;55.70;;;;;;4980393;28;20200;-69
2023/04/01 03:10:39;;;;;;;0.40;0.40;;;18.80;55.70;;;;;;4986351;28;20204;-69
2023/04/01 03:13:06;;;;;;;0.60;0.60;;;18.70;55.60;;;;;;4986770;28;20272;-69
2023/04/01 03:15:32;;;;;;;0.45;0.45;;;18.70;55.60;;;;;;4970505;28;20718;-68
2023/04/01 03:17:58;;;;;;;0.60;0.60;;;18.70;55.60;;;;;;4975177;28;20238;-69
2023/04/01 03:20:23;;;;;;;0.50;0.50;;;18.70;55.60;;;;;;4942297;29;20613;-69
2023/04/01 03:22:49;;;;;;;0.57;0.50;;;18.80;55.70;;;;;;4990922;28;20193;-68
2023/04/01 03:25:15;;;;;;;0.60;0.60;;;18.70;55.60;;;;;;4959284;28;20210;-68
2023/04/01 03:27:41;;;;;;;0.45;0.30;;;18.70;55.60;;;;;;4951851;28;20188;-68
2023/04/01 03:30:09;;;;;;;0.40;0.40;;;18.70;55.60;;;;;;4959201;28;20654;-68
2023/04/01 03:32:42;;;;;;;0.50;0.50;;;18.80;55.70;;;;;;4985388;28;20182;-68
2023/04/01 03:35:10;;;;;;;0.57;0.57;;;18.80;55.70;;;;;;4989810;28;20213;-68
2023/04/01 03:37:36;;;;;;;0.85;0.50;;;18.80;55.70;;;;;;4966736;28;20217;-68
2023/04/01 03:40:02;;;;;;;0.30;0.30;;;18.80;55.70;;;;;;4965371;28;20185;-68
2023/04/01 03:42:31;;;;;;;0.50;0.50;;;18.70;55.60;;;;;;4994892;28;20204;-69
2023/04/01 03:44:56;;;;;;;0.60;0.60;;;18.70;55.60;;;;;;4983072;28;20190;-68
2023/04/01 03:47:23;;;;;;;0.50;0.50;;;18.80;55.70;;;;;;4965354;28;20192;-68
2023/04/01 03:49:48;;;;;;;0.40;0.40;;;18.70;56.20;;;;;;4967658;28;20186;-65
2023/04/01 03:52:14;;;;;;;0.30;0.30;;;18.80;55.70;;;;;;4982766;28;20186;-65
2023/04/01 03:54:40;;;;;;;0.52;0.40;;;18.70;55.60;;;;;;4983655;28;20186;-66
2023/04/01 03:57:07;;;;;;;0.50;0.40;;;18.70;55.60;;;;;;4977702;28;20692;-66
2023/04/01 03:59:34;;;;;;;0.50;0.50;;;18.70;55.60;;;;;;4994041;28;20178;-66
2023/04/01 04:02:00;;;;;;;0.40;0.40;;;18.70;55.60;;;;;;4990722;28;20190;-65
2023/04/01 04:04:27;;;;;;;0.40;0.40;;;18.70;55.60;;;;;;4973676;28;20558;-66
2023/04/01 04:06:54;;;;;;;0.50;0.50;;;18.70;55.60;;;;;;4983110;28;20595;-66
2023/04/01 04:09:24;;;;;;;0.35;0.30;;;18.70;55.60;;;;;;4974473;28;20182;-65
2023/04/01 04:11:50;;;;;;;0.40;0.40;;;18.70;55.60;;;;;;4990459;28;20284;-64
2023/04/01 04:14:16;;;;;;;0.60;0.60;;;18.70;55.60;;;;;;4976247;28;20189;-66
2023/04/01 04:16:42;;;;;;;0.30;0.30;;;18.70;55.50;;;;;;4981277;28;20264;-67
2023/04/01 04:19:09;;;;;;;0.60;0.50;;;18.70;55.50;;;;;;4984423;28;20185;-69
2023/04/01 04:21:35;;;;;;;0.43;0.40;;;18.70;55.60;;;;;;4958194;28;20189;-68
2023/04/01 04:24:02;;;;;;;0.50;0.50;;;18.70;55.50;;;;;;4983145;28;20197;-69
2023/04/01 04:26:45;;;;;;;0.50;0.50;;;18.70;55.50;;;;;;4972476;28;20218;-67
2023/04/01 04:29:10;;;;;;;0.50;0.50;;;18.70;55.50;;;;;;4985935;28;20190;-67
2023/04/01 04:31:36;;;;;;;0.30;0.30;;;18.70;55.50;;;;;;4963626;28;20178;-68
2023/04/01 04:34:02;;;;;;;0.50;0.50;;;18.70;55.50;;;;;;4950459;28;20578;-66
2023/04/01 04:36:32;;;;;;;0.40;0.40;;;18.70;55.50;;;;;;4950747;29;20202;-66
2023/04/01 04:39:01;;;;;;;0.35;0.35;;;18.70;55.50;;;;;;4987562;28;20204;-65
2023/04/01 04:41:27;;;;;;;0.30;0.30;;;18.70;55.50;;;;;;4970983;28;20174;-68
2023/04/01 04:43:56;;;;;;;0.50;0.50;;;18.70;55.50;;;;;;4958565;28;20258;-68
2023/04/01 04:46:24;;;;;;;0.85;0.60;;;18.70;55.50;;;;;;4990241;28;20206;-69
2023/04/01 04:48:56;;;;;;;0.50;0.50;;;18.70;55.50;;;;;;4975097;28;20193;-69
2023/04/01 04:51:22;;;;;;;0.47;0.47;;;18.70;55.50;;;;;;4983756;28;20593;-69
2023/04/01 04:53:49;;;;;;;0.95;0.50;;;18.70;55.50;;;;;;4978601;28;20186;-69
2023/04/01 04:56:22;;;;;;;0.60;0.52;;;18.70;55.50;;;;;;4970359;28;20214;-69
2023/04/01 04:58:59;;;;;;;0.47;0.47;;;18.70;55.50;;;;;;4981683;28;20198;-69
2023/04/01 05:01:36;;;;;;;0.43;0.43;;;18.70;55.50;;;;;;4964543;28;20212;-68
2023/04/01 05:04:02;;;;;;;0.50;0.50;;;18.70;55.50;;;;;;4970233;28;20193;-68
2023/04/01 05:06:29;;;;;;;0.60;0.57;;;18.70;55.40;;;;;;4945191;28;20264;-66
2023/04/01 05:08:56;;;;;;;0.30;0.30;;;18.70;55.50;;;;;;4981275;28;20185;-67
2023/04/01 05:11:22;;;;;;;0.50;0.47;;;18.70;55.50;;;;;;4958627;28;20543;-68
2023/04/01 05:13:50;;;;;;;0.50;0.50;;;18.70;55.50;;;;;;4984205;28;20190;-67
2023/04/01 05:16:20;;;;;;;0.50;0.40;;;18.70;55.50;;;;;;4969812;28;20203;-68
2023/04/01 05:18:47;;;;;;;0.57;0.30;;;18.70;55.50;;;;;;4952137;28;20301;-68
2023/04/01 05:21:15;;;;;;;0.30;0.30;;;18.70;55.50;;;;;;4954570;28;20182;-68
2023/04/01 05:23:41;;;;;;;0.50;0.40;;;18.70;55.50;;;;;;4969160;28;20186;-68
2023/04/01 05:26:12;;;;;;;0.98;0.50;;;18.70;55.50;;;;;;4969779;28;20238;-65
2023/04/01 05:28:39;;;;;;;0.30;0.30;;;18.70;55.50;;;;;;4969736;28;20187;-66
2023/04/01 05:31:06;;;;;;;0.57;0.57;;;18.70;55.50;;;;;;4950981;28;20178;-68
2023/04/01 05:33:38;;;;;;;0.57;0.38;;;18.80;55.60;;;;;;4968291;28;20187;-68
2023/04/01 05:36:14;;;;;;;0.50;0.40;;;18.70;55.50;;;;;;4969339;28;20736;-66
2023/04/01 05:38:42;;;;;;;0.50;0.50;;;18.80;55.60;;;;;;4954331;28;20257;-69
2023/04/01 05:41:10;;;;;;;1.55;0.50;;;18.70;55.50;;;;;;4952981;28;20194;-68
2023/04/01 05:43:41;;;;;;;0.50;0.47;;;18.80;55.60;;;;;;4953401;28;20183;-68
2023/04/01 05:46:26;;;;;;;0.60;0.60;;;18.80;55.60;;;;;;4955598;28;20216;-67
2023/04/01 05:48:57;;;;;;;0.60;0.60;;;18.80;55.60;;;;;;4969182;28;20268;-66
2023/04/01 05:51:25;;;;;;;0.70;0.63;;;18.70;55.50;;;;;;4970358;28;20183;-68
2023/04/01 05:53:50;;;;;;;0.50;0.50;;;18.80;55.60;;;;;;4970353;28;20193;-67
2023/04/01 05:56:17;;;;;;;0.40;0.40;;;18.70;55.40;;;;;;4969561;28;20214;-67
2023/04/01 05:58:53;;;;;;;0.60;0.60;;;18.80;55.60;;;;;;4953659;28;20206;-68
2023/04/01 06:01:20;;;;;;;0.80;0.55;;;18.80;55.60;;;;;;4952897;28;20194;-68
2023/04/01 06:03:46;;;;;;;0.70;0.50;;;18.80;55.60;;;;;;4955369;28;20186;-67
2023/04/01 06:06:27;;;;;;;0.63;0.50;;;18.70;55.50;;;;;;4953901;28;20214;-67
2023/04/01 06:09:13;;;;;;;0.50;0.50;;;18.80;55.60;;;;;;4955211;28;20216;-68
2023/04/01 06:12:29;;;;;;;0.88;0.50;;;18.70;55.50;;;;;;4953376;28;20252;-68
2023/04/01 06:15:25;;;;;;;0.38;0.30;;;18.80;55.60;;;;;;4952477;28;20207;-67
2023/04/01 06:18:03;;;;;;;0.85;0.50;;;18.80;55.60;;;;;;4941726;28;20257;-66
2023/04/01 06:21:07;;;;;;;0.73;0.43;;;18.70;55.40;;;;;;4951035;28;20399;-67
2023/04/01 06:24:02;;;;;;;0.40;0.40;;;18.80;55.50;;;;;;4970455;28;20201;-68
2023/04/01 06:26:46;;;;;;;1.60;0.40;;;18.80;55.50;;;;;;4905733;28;20693;-68
2023/04/01 06:29:58;;;;;;;0.60;0.60;;;18.80;55.50;;;;;;4968757;28;20241;-68
2023/04/01 06:32:45;;;;;;;1.08;0.40;;;18.80;55.40;;;;;;4950792;28;20197;-67
2023/04/01 06:35:11;;;;;;;0.60;0.60;;;18.80;55.40;;;;;;4935866;28;20210;-68
2023/04/01 06:38:27;;;;;;;0.50;0.40;;;18.80;55.40;;;;;;4953213;28;20293;-68
2023/04/01 06:41:03;;;;;;;1.25;0.50;;;18.80;55.40;;;;;;4956255;28;20557;-68
2023/04/01 06:43:59;;;;;;;0.35;0.35;;;18.80;55.40;;;;;;4952393;28;20208;-68
2023/04/01 06:46:59;;;;;;;0.60;0.60;;;18.80;55.40;;;;;;4967499;28;20220;-68
2023/04/01 06:50:20;;;;;;;1.10;0.57;;;18.80;55.40;;;;;;4902189;28;20220;-68
2023/04/01 06:53:19;;;;;;;0.50;0.50;;;18.80;55.40;;;;;;4954910;28;20237;-68
2023/04/01 06:56:20;;;;;;;0.40;0.40;;;18.80;55.50;;;;;;4953057;28;20217;-67
2023/04/01 06:59:09;;;;;;;1.60;0.77;;;18.80;55.40;;;;;;4954916;28;20221;-68
2023/04/01 07:01:44;;;;;;;0.43;0.40;;;18.80;55.50;;;;;;4966211;28;20182;-68
2023/04/01 07:04:19;;;;;;;0.65;0.50;;;18.80;55.50;;;;;;4967511;28;20212;-68
2023/04/01 07:06:58;;;;;;;0.60;0.60;;;18.80;55.50;;;;;;4970668;28;20213;-68
2023/04/01 07:09:36;;;;;;;1.35;0.82;;;18.80;55.60;;;;;;4953241;28;20190;-70
2023/04/01 07:12:35;;;;;;;3.05;0.70;;;18.80;55.70;;;;;;4954561;28;20248;-67
2023/04/01 07:15:41;;;;;;;0.50;0.50;;;18.90;55.70;;;;;;4951677;28;20249;-68
2023/04/01 07:18:22;;;;;;;1.80;0.70;;;18.80;55.70;;;;;;4969590;28;20206;-68
2023/04/01 07:20:49;;;;;;;2.45;0.75;;;18.90;55.80;;;;;;4983656;28;20187;-68
2023/04/01 07:23:26;;;;;;;1.05;0.63;;;18.80;55.80;;;;;;4953687;28;20205;-68
2023/04/01 07:26:20;;;;;;;2.13;0.60;;;18.80;55.70;;;;;;4953476;28;20206;-68
2023/04/01 07:29:12;;;;;;;0.40;0.40;;;18.80;55.70;;;;;;4958906;28;20179;-68
2023/04/01 07:32:09;;;;;;;2.25;0.73;;;18.80;55.70;;;;;;4952918;28;20190;-67
2023/04/01 07:34:56;;;;;;;1.58;0.60;;;18.80;55.70;;;;;;4951090;28;20233;-68
2023/04/01 07:38:23;;;;;;;1.10;0.63;;;18.80;55.70;;;;;;4953279;28;20214;-68
2023/04/01 07:41:23;;;;;;;1.13;0.60;;;18.80;55.70;;;;;;4924979;28;20206;-68
2023/04/01 07:44:18;;;;;;;1.23;0.80;;;18.80;55.70;;;;;;4951249;28;20198;-68
2023/04/01 07:47:03;;;;;;;1.33;0.68;;;18.80;55.70;;;;;;4953157;28;20213;-69
2023/04/01 07:49:54;;;;;;;0.70;0.70;;;18.80;55.70;;;;;;4955847;28;20205;-68
2023/04/01 07:53:01;;;;;;;0.77;0.50;;;18.80;55.70;;;;;;4956990;28;20281;-67
2023/04/01 07:55:32;;;;;;;0.90;0.50;;;18.80;55.70;;;;;;4923730;28;20236;-68
2023/04/01 07:58:13;;;;;;;1.38;0.70;;;18.80;55.70;;;;;;4941386;28;20252;-68
2023/04/01 08:01:10;;;;;;;1.13;0.60;;;18.80;55.70;;;;;;4956567;28;20182;-68
2023/04/01 08:04:13;;;;;;;1.75;0.60;;;18.80;55.70;;;;;;4955233;28;20197;-68
2023/04/01 08:07:17;;;;;;;0.93;0.70;;;18.80;55.70;;;;;;5012886;23;20247;-69
2023/04/01 08:10:22;;;;;;;3.53;0.60;;;18.90;55.70;;;;;;4979990;28;20177;-68
2023/04/01 08:13:41;;;;;;;1.23;0.40;;;18.80;55.60;;;;;;4994497;28;20195;-68
2023/04/01 08:16:50;;;;;;;1.52;0.73;;;18.80;55.70;;;;;;4991079;28;20211;-68
2023/04/01 08:20:08;;;;;;;2.75;0.85;;;18.80;55.70;;;;;;4993972;28;20193;-69
2023/04/01 08:22:43;;;;;;;0.70;0.70;;;18.80;55.70;;;;;;4993981;28;20244;-69
2023/04/01 08:25:29;;;;;;;2.20;0.60;;;18.80;55.70;;;;;;4988831;28;20247;-68
2023/04/01 08:28:07;;;;;;;0.60;0.60;;;18.80;55.70;;;;;;4977885;28;20189;-68
2023/04/01 08:31:02;;;;;;;1.58;0.75;;;18.90;55.70;;;;;;4973428;28;20227;-68
2023/04/01 08:33:32;;;;;;;1.73;0.70;;;18.80;55.60;;;;;;4994026;28;20227;-69
2023/04/01 08:36:11;;;;;;;0.98;0.50;;;18.80;55.70;;;;;;4977771;28;20216;-68
2023/04/01 08:38:49;;;;;;;0.60;0.50;;;18.80;55.70;;;;;;4993559;28;20294;-69
2023/04/01 08:42:13;;;;;;;0.90;0.65;;;18.80;55.70;;;;;;4971657;28;20191;-68
2023/04/01 08:45:21;;;;;;;1.05;0.60;;;18.80;55.70;;;;;;4994608;28;20231;-68
2023/04/01 08:48:36;;;;;;;0.70;0.70;;;18.90;55.80;;;;;;4994689;28;20259;-68
2023/04/01 08:51:48;;;;;;;0.50;0.50;;;18.80;55.70;;;;;;4985792;28;20203;-68
2023/04/01 08:55:15;;;;;;;1.30;0.40;;;18.80;56.20;;;;;;4975317;28;20188;-68
2023/04/01 08:58:37;;;;;;;1.20;0.60;;;18.80;55.70;;;;;;4967586;28;20220;-68
2023/04/01 09:01:39;;;;;;;0.60;0.60;;;18.80;55.70;;;;;;4986637;28;20196;-68
2023/04/01 09:05:10;;;;;;;0.50;0.50;;;18.80;55.70;;;;;;4973803;28;20193;-68
2023/04/01 09:08:39;;;;;;;1.35;0.57;;;18.80;55.70;;;;;;4981312;28;20263;-68
2023/04/01 09:11:37;;;;;;;2.25;0.70;;;18.80;55.70;;;;;;4976675;28;20184;-69
2023/04/01 09:14:27;;;;;;;0.60;0.60;;;18.80;55.70;;;;;;4993459;28;20291;-68
2023/04/01 09:17:16;;;;;;;0.50;0.50;;;18.80;55.70;;;;;;4971142;28;20302;-68
2023/04/01 09:20:03;;;;;;;1.27;0.52;;;18.80;55.70;;;;;;4984755;28;20211;-68
2023/04/01 09:23:00;;;;;;;1.00;0.60;;;18.80;55.70;;;;;;5004359;28;20219;-68
2023/04/01 09:26:16;;;;;;;0.95;0.60;;;18.80;55.70;;;;;;4987405;28;20205;-68
2023/04/01 09:29:10;;;;;;;0.38;0.38;;;18.80;55.70;;;;;;4989275;28;20185;-68
2023/04/01 09:31:49;;;;;;;1.40;0.50;;;18.80;55.70;;;;;;4976166;28;20193;-68
2023/04/01 09:35:18;;;;;;;0.55;0.50;;;18.80;55.70;;;;;;4985912;28;20195;-68
2023/04/01 09:37:53;;;;;;;0.40;0.40;;;18.80;55.70;;;;;;4992061;28;20216;-68
2023/04/01 09:40:55;;;;;;;0.40;0.40;;;18.80;55.70;;;;;;4985201;28;20184;-68
2023/04/01 09:44:01;;;;;;;0.75;0.70;;;18.80;55.70;;;;;;4988422;28;20180;-68
2023/04/01 09:46:44;;;;;;;0.75;0.70;;;18.80;55.60;;;;;;4968151;28;20293;-69
2023/04/01 09:49:57;;;;;;;0.65;0.57;;;18.80;55.60;;;;;;4972983;28;20196;-68
2023/04/01 09:52:59;;;;;;;0.60;0.60;;;18.80;55.60;;;;;;4994777;28;20192;-68
2023/04/01 09:55:41;;;;;;;1.20;0.60;;;18.80;55.60;;;;;;4976344;28;20216;-68
2023/04/01 09:58:45;;;;;;;0.50;0.50;;;18.90;55.70;;;;;;4986766;28;20639;-68
2023/04/01 10:01:57;;;;;;;0.40;0.40;;;18.80;55.60;;;;;;4899537;29;20206;-68
2023/04/01 10:04:59;;;;;;;0.57;0.30;;;18.80;55.60;;;;;;4970715;28;20196;-68
2023/04/01 10:07:52;;;;;;;0.93;0.60;;;18.90;55.60;;;;;;4969868;28;20189;-68
2023/04/01 10:10:42;;;;;;;0.60;0.60;;;18.90;55.60;;;;;;4984247;28;20224;-68
2023/04/01 10:13:40;;;;;;;0.85;0.45;;;18.90;55.60;;;;;;4975569;28;20198;-68
2023/04/01 10:16:30;;;;;;;0.50;0.50;;;18.90;55.70;;;;;;4955676;28;20244;-68
2023/04/01 10:19:39;;;;;;;0.50;0.50;;;18.90;55.70;;;;;;4975758;28;20707;-68
2023/04/01 10:22:25;;;;;;;0.50;0.50;;;18.90;55.60;;;;;;4939931;28;20216;-68
2023/04/01 10:25:18;;;;;;;0.50;0.50;;;18.90;55.60;;;;;;4991626;28;20234;-68
2023/04/01 10:28:18;;;;;;;0.70;0.60;;;18.90;55.70;;;;;;4991829;28;20345;-68
2023/04/01 10:31:37;;;;;;;0.50;0.40;;;18.90;55.70;;;;;;4992633;28;20284;-69
2023/04/01 10:34:36;;;;;;;1.05;0.40;;;18.90;55.60;;;;;;4975797;28;20189;-68
2023/04/01 10:37:32;;;;;;;0.55;0.47;;;18.90;55.60;;;;;;4991044;28;20220;-68
2023/04/01 10:40:14;;;;;;;0.68;0.68;;;18.90;55.60;;;;;;4991285;28;20605;-68
2023/04/01 10:43:14;;;;;;;0.40;0.40;;;18.90;55.70;;;;;;4992560;28;20203;-68
2023/04/01 10:46:43;;;;;;;2.45;0.55;;;18.90;55.70;;;;;;4976881;28;20204;-69
2023/04/01 10:49:47;;;;;;;0.50;0.50;;;18.90;55.70;;;;;;4975137;28;20189;-68
2023/04/01 10:52:28;;;;;;;0.50;0.50;;;18.90;55.70;;;;;;4926971;28;20581;-69
2023/04/01 10:55:48;;;;;;;0.50;0.50;;;18.90;55.70;;;;;;4985807;28;20733;-68
2023/04/01 10:59:08;;;;;;;0.80;0.68;;;18.90;55.70;;;;;;4986224;28;20643;-68
2023/04/01 11:02:46;;;;;;;1.17;0.65;;;18.90;55.70;;;;;;4990938;28;20204;-68
2023/04/01 11:06:19;;;;;;;0.60;0.57;;;18.90;55.70;;;;;;4985653;28;20227;-68
2023/04/01 11:08:51;;;;;;;0.60;0.60;;;18.90;55.70;;;;;;4987552;28;20177;-68
2023/04/01 11:11:57;;;;;;;0.57;0.57;;;18.90;55.70;;;;;;4967583;28;20189;-68
2023/04/01 11:14:45;;;;;;;0.70;0.60;;;18.90;55.70;;;;;;4975326;28;20188;-68
2023/04/01 11:17:33;;;;;;;1.35;0.63;;;18.90;55.70;;;;;;4990996;28;20334;-68
2023/04/01 11:20:54;;;;;;;0.90;0.90;;;18.90;55.70;;;;;;4974980;28;20279;-68
2023/04/01 11:23:51;;;;;;;0.50;0.50;;;18.90;55.80;;;;;;4982154;28;20199;-68
2023/04/01 11:26:40;;;;;;;0.80;0.80;;;18.90;55.70;;;;;;5003320;28;20209;-69
2023/04/01 11:29:38;;;;;;;0.80;0.75;;;18.90;55.70;;;;;;4995452;28;20181;-69
2023/04/01 11:32:54;;;;;;;0.70;0.70;;;18.90;55.70;;;;;;4980691;28;20615;-68
2023/04/01 11:35:57;;;;;;;0.77;0.70;;;18.90;55.70;;;;;;4982549;28;20724;-68
2023/04/01 11:39:20;;;;;;;1.15;1.05;;;18.90;55.70;;;;;;4977214;28;20340;-68
2023/04/01 11:42:40;;;;;;;0.73;0.70;;;18.90;55.70;;;;;;4995292;28;20208;-68
2023/04/01 11:45:49;;;;;;;0.80;0.73;;;18.90;55.70;;;;;;4993446;28;20247;-68
2023/04/01 11:49:13;;;;;;;0.70;0.70;;;18.90;55.70;;;;;;4978722;28;20674;-68
2023/04/01 11:52:21;;;;;;;0.82;0.60;;;18.90;55.70;;;;;;4948553;28;20197;-68
2023/04/01 11:55:43;;;;;;;0.73;0.73;;;18.90;55.70;;;;;;4994949;28;20231;-68
2023/04/01 11:58:51;;;;;;;0.98;0.60;;;18.90;55.70;;;;;;4918355;29;20220;-68
2023/04/01 12:01:51;;;;;;;0.60;0.60;;;18.90;55.70;;;;;;4903377;29;20199;-68
2023/04/01 12:04:54;;;;;;;0.65;0.65;;;18.90;55.70;;;;;;4993139;28;20235;-68
2023/04/01 12:07:52;;;;;;;0.82;0.77;;;19.00;55.80;;;;;;4994321;28;20223;-68
2023/04/01 12:10:28;;;;;;;0.75;0.73;;;18.90;55.70;;;;;;4992134;28;20189;-68
2023/04/01 12:13:33;;;;;;;1.15;0.60;;;18.90;55.70;;;;;;4977869;28;20189;-68
2023/04/01 12:16:36;;;;;;;0.82;0.82;;;18.90;55.70;;;;;;4994095;28;20209;-68
2023/04/01 12:19:27;;;;;;;0.75;0.70;;;19.00;55.80;;;;;;4995119;28;20208;-68
2023/04/01 12:22:41;;;;;;;0.60;0.60;;;18.90;55.70;;;;;;4978804;28;20217;-68
2023/04/01 12:25:48;;;;;;;0.93;0.80;;;18.90;55.70;;;;;;4987240;28;20271;-68
2023/04/01 12:28:49;;;;;;;0.70;0.70;;;18.90;56.30;;;;;;4960607;28;20236;-68
2023/04/01 12:31:57;;;;;;;0.80;0.80;;;19.00;55.80;;;;;;5001100;28;20196;-68
2023/04/01 12:34:41;;;;;;;0.85;0.70;;;18.90;55.70;;;;;;4969374;28;20184;-68
2023/04/01 12:37:47;;;;;;;0.60;0.60;;;18.90;55.70;;;;;;5001411;28;20213;-69
2023/04/01 12:40:54;;;;;;;0.70;0.70;;;18.90;55.80;;;;;;4993429;28;20568;-68
2023/04/01 12:43:52;;;;;;;1.20;0.70;;;18.90;55.70;;;;;;4977287;28;20195;-68
2023/04/01 12:47:15;;;;;;;0.57;0.57;;;18.90;55.70;;;;;;5001621;28;20219;-68
2023/04/01 12:50:30;;;;;;;0.82;0.65;;;19.00;55.80;;;;;;4996307;28;20204;-69
2023/04/01 12:53:20;;;;;;;0.57;0.57;;;18.90;55.80;;;;;;4993464;28;20193;-68
2023/04/01 12:55:50;;;;;;;0.60;0.60;;;19.00;55.80;;;;;;4998283;28;20213;-69
2023/04/01 12:58:51;;;;;;;1.30;0.70;;;18.90;55.80;;;;;;4976433;28;20285;-69
2023/04/01 13:01:41;;;;;;;0.68;0.68;;;18.90;55.80;;;;;;4977080;28;20267;-68
2023/04/01 13:04:39;;;;;;;0.80;0.80;;;18.90;55.70;;;;;;4974912;28;20224;-68
2023/04/01 13:07:43;;;;;;;0.68;0.68;;;18.90;55.80;;;;;;4940755;28;20295;-68
2023/04/01 13:10:35;;;;;;;1.10;0.63;;;18.90;55.80;;;;;;4991275;28;20196;-68
2023/04/01 13:13:35;;;;;;;0.52;0.52;;;19.00;55.80;;;;;;4976467;28;20701;-68
2023/04/01 13:16:24;;;;;;;0.50;0.50;;;18.90;55.70;;;;;;4975193;28;20209;-68
2023/04/01 13:19:14;;;;;;;0.50;0.50;;;18.90;55.80;;;;;;4976499;28;20223;-68
2023/04/01 13:22:14;;;;;;;0.65;0.65;;;18.90;55.70;;;;;;4970742;28;20185;-68
2023/04/01 13:25:15;;;;;;;0.77;0.60;;;18.90;55.80;;;;;;4991028;28;20209;-68
2023/04/01 13:27:51;;;;;;;1.45;0.50;;;18.90;56.30;;;;;;4987464;28;20192;-69
2023/04/01 13:30:47;;;;;;;0.60;0.50;;;19.00;55.80;;;;;;4993732;28;20196;-68
2023/04/01 13:33:38;;;;;;;0.70;0.70;;;19.00;55.80;;;;;;4992677;28;20200;-68
2023/04/01 13:36:22;;;;;;;0.50;0.40;;;19.00;55.80;;;;;;4976223;28;20220;-68
2023/04/01 13:39:35;;;;;;;0.65;0.65;;;19.00;55.80;;;;;;4994042;28;20251;-68
2023/04/01 13:42:47;;;;;;;0.80;0.80;;;19.00;55.80;;;;;;4992308;28;20192;-68
2023/04/01 13:45:21;;;;;;;0.70;0.70;;;19.00;55.80;;;;;;4977794;28;20689;-68
2023/04/01 13:48:28;;;;;;;0.63;0.57;;;19.00;55.90;;;;;;4997656;28;20200;-69
2023/04/01 13:51:12;;;;;;;0.70;0.70;;;19.00;55.70;;;;;;4988135;28;20192;-69
2023/04/01 13:54:04;;;;;;;2.05;0.80;;;19.00;55.80;;;;;;4975931;28;20251;-68
2023/04/01 13:57:10;;;;;;;0.68;0.60;;;19.00;55.80;;;;;;4985186;28;20216;-68
2023/04/01 14:00:16;;;;;;;0.65;0.65;;;19.00;55.80;;;;;;4959919;28;20214;-70
2023/04/01 14:03:38;;;;;;;0.60;0.60;;;18.90;55.60;;;;;;4975943;28;20234;-69
2023/04/01 14:06:26;;;;;;;0.60;0.60;;;19.00;55.70;;;;;;4991953;28;20223;-68
2023/04/01 14:09:39;;;;;;;0.50;0.50;;;18.90;55.60;;;;;;4992055;28;20187;-69
2023/04/01 14:12:29;;;;;;;0.60;0.60;;;18.90;55.70;;;;;;4972956;28;20192;-68
2023/04/01 14:15:28;;;;;;;0.40;0.40;;;19.00;55.70;;;;;;4991884;28;20197;-68
2023/04/01 14:18:11;;;;;;;0.98;0.90;;;18.90;55.70;;;;;;4971437;28;20299;-69
2023/04/01 14:21:06;;;;;;;0.60;0.60;;;19.00;55.70;;;;;;4991777;28;20189;-69
2023/04/01 14:23:43;;;;;;;0.65;0.60;;;18.90;55.60;;;;;;4983244;28;20201;-69